createdAt,value
2018-03-24T00:00:21.133Z,2.70
2018-03-24T00:02:49.425Z,2.70
2018-03-24T00:05:17.737Z,2.70
2018-03-24T00:07:46.028Z,2.70
2018-03-24T00:10:14.351Z,2.70
2018-03-24T00:12:42.653Z,2.70
2018-03-24T00:15:10.968Z,2.70
2018-03-24T00:17:39.264Z,2.70
2018-03-24T00:20:07.577Z,2.70
2018-03-24T00:22:35.876Z,2.70
2018-03-24T00:25:04.188Z,2.60
2018-03-24T00:27:32.488Z,2.60
2018-03-24T00:30:00.808Z,2.60
2018-03-24T00:32:29.106Z,2.60
2018-03-24T00:34:57.420Z,2.70
2018-03-24T00:37:25.733Z,2.70
2018-03-24T00:39:54.019Z,2.70
2018-03-24T00:42:22.329Z,2.80
2018-03-24T00:44:50.616Z,2.80
2018-03-24T00:47:18.932Z,2.80
2018-03-24T00:49:47.216Z,2.90
2018-03-24T00:52:15.542Z,2.90
2018-03-24T00:54:43.836Z,2.90
2018-03-24T00:57:12.156Z,2.90
2018-03-24T00:59:40.443Z,2.90
2018-03-24T01:02:08.756Z,3.00
2018-03-24T01:04:37.040Z,3.00
2018-03-24T01:07:05.347Z,3.00
2018-03-24T01:09:33.645Z,3.00
2018-03-24T01:12:01.960Z,3.00
2018-03-24T01:14:30.255Z,3.00
2018-03-24T01:16:58.573Z,3.10
2018-03-24T01:19:26.878Z,3.10
2018-03-24T01:21:55.196Z,3.10
2018-03-24T01:24:23.498Z,3.10
2018-03-24T01:26:51.817Z,3.10
2018-03-24T01:29:20.104Z,3.10
2018-03-24T01:31:48.424Z,3.10
2018-03-24T01:34:16.716Z,3.10
2018-03-24T01:36:45.036Z,3.10
2018-03-24T01:39:13.338Z,3.10
2018-03-24T01:41:41.652Z,3.10
2018-03-24T01:44:09.949Z,3.10
2018-03-24T01:46:38.269Z,3.10
2018-03-24T01:49:06.563Z,3.10
2018-03-24T01:51:34.880Z,3.20
2018-03-24T01:54:03.174Z,3.20
2018-03-24T01:56:31.492Z,3.20
2018-03-24T01:58:59.784Z,3.20
2018-03-24T02:01:28.099Z,3.10
2018-03-24T02:03:56.393Z,3.10
2018-03-24T02:06:24.708Z,3.00
2018-03-24T02:08:53.009Z,2.90
2018-03-24T02:11:21.335Z,2.80
2018-03-24T02:13:49.632Z,2.70
2018-03-24T02:16:17.949Z,2.60
2018-03-24T02:18:46.242Z,2.40
2018-03-24T02:21:18.044Z,2.30
2018-03-24T02:23:46.340Z,2.20
2018-03-24T02:26:14.632Z,2.10
2018-03-24T02:28:42.947Z,2.00
2018-03-24T02:31:11.237Z,1.90
2018-03-24T02:33:39.544Z,1.80
2018-03-24T02:36:07.840Z,1.80
2018-03-24T02:38:36.156Z,1.70
2018-03-24T02:41:04.450Z,1.60
2018-03-24T02:43:32.771Z,1.50
2018-03-24T02:46:01.081Z,1.40
2018-03-24T02:48:29.397Z,1.40
2018-03-24T02:50:57.694Z,1.30
2018-03-24T02:53:26.008Z,1.20
2018-03-24T02:55:54.297Z,1.20
2018-03-24T02:58:22.613Z,1.10
2018-03-24T03:00:50.899Z,1.10
2018-03-24T03:03:19.218Z,1.00
2018-03-24T03:05:47.520Z,1.00
2018-03-24T03:08:15.833Z,0.90
2018-03-24T03:10:44.124Z,0.80
2018-03-24T03:13:12.466Z,0.80
2018-03-24T03:15:40.754Z,0.80
2018-03-24T03:18:09.069Z,0.70
2018-03-24T03:20:37.653Z,0.70
2018-03-24T03:23:05.963Z,0.80
2018-03-24T03:25:34.265Z,0.90
2018-03-24T03:28:02.650Z,1.00
2018-03-24T03:30:36.725Z,1.10
2018-03-24T03:33:05.047Z,1.20
2018-03-24T03:35:33.359Z,1.20
2018-03-24T03:38:01.686Z,1.30
2018-03-24T03:40:29.983Z,1.40
2018-03-24T03:42:58.300Z,1.50
2018-03-24T03:45:26.588Z,1.60
2018-03-24T03:47:54.937Z,1.70
2018-03-24T03:50:23.237Z,1.80
2018-03-24T03:52:51.558Z,1.90
2018-03-24T03:55:19.849Z,2.00
2018-03-24T03:57:48.169Z,2.00
2018-03-24T04:00:16.456Z,2.10
2018-03-24T04:02:44.768Z,2.10
2018-03-24T04:05:12.293Z,2.10
2018-03-24T04:07:40.589Z,2.20
2018-03-24T04:10:08.928Z,2.30
2018-03-24T04:12:37.220Z,2.30
2018-03-24T04:15:05.529Z,2.30
2018-03-24T04:17:33.816Z,2.30
2018-03-24T04:20:02.136Z,2.40
2018-03-24T04:22:30.433Z,2.40
2018-03-24T04:24:58.748Z,2.50
2018-03-24T04:27:27.040Z,2.50
2018-03-24T04:29:55.359Z,2.50
2018-03-24T04:32:23.656Z,2.50
2018-03-24T04:34:51.968Z,2.60
2018-03-24T04:37:20.256Z,2.60
2018-03-24T04:39:48.564Z,2.60
2018-03-24T04:42:16.095Z,2.60
2018-03-24T04:44:44.409Z,2.70
2018-03-24T04:47:12.717Z,2.70
2018-03-24T04:49:41.029Z,2.70
2018-03-24T04:52:09.330Z,2.70
2018-03-24T04:54:37.645Z,2.80
2018-03-24T04:57:05.932Z,2.70
2018-03-24T04:59:34.255Z,2.70
2018-03-24T05:02:02.551Z,2.70
2018-03-24T05:04:30.865Z,2.70
2018-03-24T05:06:59.157Z,2.70
2018-03-24T05:09:27.474Z,2.60
2018-03-24T05:11:55.776Z,2.60
2018-03-24T05:14:24.108Z,2.60
2018-03-24T05:16:52.396Z,2.50
2018-03-24T05:19:20.709Z,2.50
2018-03-24T05:21:49.013Z,2.60
2018-03-24T05:24:17.335Z,2.50
2018-03-24T05:26:45.620Z,2.60
2018-03-24T05:29:13.944Z,2.60
2018-03-24T05:31:42.244Z,2.60
2018-03-24T05:34:10.732Z,2.60
2018-03-24T05:36:39.046Z,2.60
2018-03-24T05:39:07.405Z,2.60
2018-03-24T05:41:35.663Z,2.70
2018-03-24T05:44:03.978Z,2.80
2018-03-24T05:46:32.268Z,2.80
2018-03-24T05:49:00.592Z,2.90
2018-03-24T05:51:28.889Z,2.90
2018-03-24T05:53:57.181Z,2.90
2018-03-24T05:56:25.505Z,3.00
2018-03-24T05:58:53.800Z,3.00
2018-03-24T06:01:22.116Z,3.00
2018-03-24T06:03:49.939Z,3.00
2018-03-24T06:06:17.783Z,3.10
2018-03-24T06:08:45.612Z,3.10
2018-03-24T06:11:13.948Z,3.20
2018-03-24T06:13:42.241Z,3.20
2018-03-24T06:16:10.560Z,3.20
2018-03-24T06:18:38.845Z,3.30
2018-03-24T06:21:07.161Z,3.30
2018-03-24T06:23:35.461Z,3.40
2018-03-24T06:26:03.789Z,3.50
2018-03-24T06:28:32.108Z,3.60
2018-03-24T06:31:06.058Z,3.60
2018-03-24T06:33:34.338Z,3.50
2018-03-24T06:36:02.665Z,3.50
2018-03-24T06:38:30.959Z,3.40
2018-03-24T06:40:59.332Z,3.40
2018-03-24T06:43:27.641Z,3.40
2018-03-24T06:45:55.944Z,3.40
2018-03-24T06:48:24.249Z,3.40
2018-03-24T06:50:52.809Z,3.40
2018-03-24T06:53:21.093Z,3.50
2018-03-24T06:55:49.404Z,3.70
2018-03-24T06:58:17.693Z,3.90
2018-03-24T07:00:46.012Z,4.00
2018-03-24T07:03:14.312Z,4.10
2018-03-24T07:05:41.888Z,4.10
2018-03-24T07:08:09.409Z,4.20
2018-03-24T07:10:37.728Z,4.50
2018-03-24T07:13:06.024Z,4.60
2018-03-24T07:15:34.341Z,4.80
2018-03-24T07:18:02.639Z,4.90
2018-03-24T07:20:30.953Z,5.00
2018-03-24T07:22:59.249Z,5.00
2018-03-24T07:25:27.639Z,5.10
2018-03-24T07:27:55.978Z,5.00
2018-03-24T07:30:24.316Z,5.00
2018-03-24T07:32:52.612Z,5.10
2018-03-24T07:35:20.931Z,5.20
2018-03-24T07:37:49.253Z,5.50
2018-03-24T07:40:17.534Z,5.70
2018-03-24T07:42:45.856Z,5.90
2018-03-24T07:45:14.146Z,6.10
2018-03-24T07:47:42.522Z,6.30
2018-03-24T07:50:10.816Z,6.40
2018-03-24T07:52:39.134Z,6.50
2018-03-24T07:55:07.432Z,6.60
2018-03-24T07:57:35.754Z,6.70
2018-03-24T08:00:04.044Z,6.90
2018-03-24T08:02:32.373Z,7.00
2018-03-24T08:05:00.677Z,6.90
2018-03-24T08:07:28.992Z,7.00
2018-03-24T08:09:57.293Z,7.20
2018-03-24T08:12:25.628Z,7.10
2018-03-24T08:14:53.152Z,7.20
2018-03-24T08:17:21.472Z,7.20
2018-03-24T08:19:49.764Z,7.20
2018-03-24T08:22:18.084Z,7.10
2018-03-24T08:24:46.376Z,7.20
2018-03-24T08:27:14.697Z,7.30
2018-03-24T08:29:43.029Z,7.40
2018-03-24T08:32:11.354Z,7.30
2018-03-24T08:34:39.649Z,7.30
2018-03-24T08:37:07.972Z,7.40
2018-03-24T08:39:36.280Z,7.60
2018-03-24T08:42:04.596Z,7.80
2018-03-24T08:44:32.892Z,7.80
2018-03-24T08:47:01.214Z,7.60
2018-03-24T08:49:29.512Z,7.50
2018-03-24T08:51:57.834Z,7.50
2018-03-24T08:54:26.133Z,7.50
2018-03-24T08:56:54.456Z,7.60
2018-03-24T08:59:22.752Z,7.80
2018-03-24T09:01:51.079Z,8.00
2018-03-24T09:04:19.402Z,8.30
2018-03-24T09:06:47.724Z,8.40
2018-03-24T09:09:16.030Z,8.40
2018-03-24T09:11:44.354Z,8.40
2018-03-24T09:14:12.666Z,8.40
2018-03-24T09:16:41.004Z,8.20
2018-03-24T09:19:09.317Z,8.20
2018-03-24T09:21:37.655Z,8.30
2018-03-24T09:24:05.993Z,8.40
2018-03-24T09:26:34.292Z,8.80
2018-03-24T09:29:02.630Z,8.90
2018-03-24T09:31:30.933Z,9.10
2018-03-24T09:33:59.267Z,9.20
2018-03-24T09:36:27.572Z,9.40
2018-03-24T09:38:55.896Z,9.60
2018-03-24T09:41:24.204Z,9.70
2018-03-24T09:43:52.527Z,9.90
2018-03-24T09:46:20.849Z,10.00
2018-03-24T09:48:49.173Z,10.10
2018-03-24T09:51:17.493Z,10.10
2018-03-24T09:53:45.071Z,10.00
2018-03-24T09:56:12.611Z,9.90
2018-03-24T09:58:40.938Z,9.90
2018-03-24T10:01:09.232Z,10.20
2018-03-24T10:03:37.557Z,10.50
2018-03-24T10:06:05.856Z,10.80
2018-03-24T10:08:34.185Z,10.90
2018-03-24T10:11:02.548Z,11.00
2018-03-24T10:13:30.834Z,11.00
2018-03-24T10:15:59.139Z,10.80
2018-03-24T10:18:27.473Z,10.80
2018-03-24T10:21:17.581Z,10.80
2018-03-24T10:23:50.469Z,10.70
2018-03-24T10:26:18.768Z,10.50
2018-03-24T10:28:47.087Z,10.50
2018-03-24T10:31:15.380Z,10.50
2018-03-24T10:33:48.713Z,10.50
2018-03-24T10:36:17.022Z,10.80
2018-03-24T10:38:45.341Z,10.90
2018-03-24T10:41:13.652Z,11.10
2018-03-24T10:43:41.980Z,11.30
2018-03-24T10:46:10.285Z,11.40
2018-03-24T10:48:38.600Z,11.30
2018-03-24T10:51:06.899Z,11.40
2018-03-24T10:53:35.221Z,11.60
2018-03-24T10:56:03.520Z,11.80
2018-03-24T10:58:31.817Z,11.80
2018-03-24T11:01:03.466Z,11.50
2018-03-24T11:03:31.777Z,11.50
2018-03-24T11:06:00.237Z,11.80
2018-03-24T11:08:28.541Z,12.20
2018-03-24T11:10:56.862Z,12.30
2018-03-24T11:13:25.163Z,12.20
2018-03-24T11:15:53.488Z,12.30
2018-03-24T11:18:21.792Z,12.20
2018-03-24T11:20:50.111Z,11.80
2018-03-24T11:23:18.411Z,11.50
2018-03-24T11:25:45.969Z,11.50
2018-03-24T11:28:14.267Z,12.00
2018-03-24T11:30:42.589Z,12.40
2018-03-24T11:33:10.909Z,12.60
2018-03-24T11:35:39.233Z,12.70
2018-03-24T11:38:07.547Z,12.70
2018-03-24T11:40:35.864Z,12.50
2018-03-24T11:43:04.161Z,12.60
2018-03-24T11:45:32.487Z,12.80
2018-03-24T11:48:00.792Z,13.00
2018-03-24T11:50:29.116Z,12.80
2018-03-24T11:52:57.423Z,12.90
2018-03-24T11:55:25.752Z,13.10
2018-03-24T11:57:54.045Z,13.30
2018-03-24T12:00:22.375Z,13.40
2018-03-24T12:02:50.674Z,13.50
2018-03-24T12:05:19.006Z,13.60
2018-03-24T12:07:47.304Z,13.60
2018-03-24T12:10:15.632Z,13.50
2018-03-24T12:12:43.940Z,13.70
2018-03-24T12:15:12.268Z,14.10
2018-03-24T12:17:40.572Z,14.20
2018-03-24T12:20:08.897Z,14.10
2018-03-24T12:22:37.200Z,13.90
2018-03-24T12:25:05.526Z,13.80
2018-03-24T12:27:33.820Z,13.60
2018-03-24T12:30:02.132Z,13.40
2018-03-24T12:32:30.429Z,13.40
2018-03-24T12:34:58.776Z,13.50
2018-03-24T12:37:27.085Z,13.70
2018-03-24T12:39:55.389Z,14.00
2018-03-24T12:42:23.712Z,14.30
2018-03-24T12:44:52.011Z,14.10
2018-03-24T12:47:20.332Z,13.80
2018-03-24T12:49:48.627Z,13.70
2018-03-24T12:52:16.949Z,13.70
2018-03-24T12:54:45.250Z,13.80
2018-03-24T12:57:13.567Z,13.80
2018-03-24T12:59:41.878Z,13.80
2018-03-24T13:02:10.192Z,13.70
2018-03-24T13:04:38.484Z,13.70
2018-03-24T13:07:06.806Z,13.50
2018-03-24T13:09:34.635Z,13.50
2018-03-24T13:12:02.487Z,13.50
2018-03-24T13:14:30.790Z,13.80
2018-03-24T13:16:59.116Z,14.10
2018-03-24T13:19:27.436Z,14.10
2018-03-24T13:21:55.755Z,13.90
2018-03-24T13:24:24.072Z,13.70
2018-03-24T13:26:53.385Z,13.40
2018-03-24T13:29:21.689Z,13.50
2018-03-24T13:31:50.017Z,13.70
2018-03-24T13:34:18.318Z,13.80
2018-03-24T13:36:46.648Z,13.80
2018-03-24T13:39:14.961Z,13.70
2018-03-24T13:41:43.293Z,13.70
2018-03-24T13:44:11.594Z,13.90
2018-03-24T13:46:39.916Z,14.00
2018-03-24T13:49:08.216Z,13.90
2018-03-24T13:51:36.540Z,13.90
2018-03-24T13:54:04.841Z,14.10
2018-03-24T13:56:33.156Z,13.90
2018-03-24T13:59:01.472Z,13.80
2018-03-24T14:01:29.795Z,14.00
2018-03-24T14:03:58.101Z,14.00
2018-03-24T14:06:26.424Z,13.90
2018-03-24T14:08:54.731Z,13.70
2018-03-24T14:11:23.053Z,13.80
2018-03-24T14:13:51.357Z,14.10
2018-03-24T14:16:19.685Z,14.30
2018-03-24T14:18:47.988Z,14.10
2018-03-24T14:21:16.288Z,14.10
2018-03-24T14:23:44.622Z,14.00
2018-03-24T14:26:12.932Z,14.10
2018-03-24T14:28:41.250Z,14.10
2018-03-24T14:31:09.557Z,14.30
2018-03-24T14:33:37.876Z,14.40
2018-03-24T14:36:06.180Z,14.40
2018-03-24T14:38:34.560Z,14.20
2018-03-24T14:41:02.823Z,14.10
2018-03-24T14:43:31.164Z,14.10
2018-03-24T14:45:59.480Z,14.00
2018-03-24T14:48:27.806Z,14.10
2018-03-24T14:50:56.114Z,14.20
2018-03-24T14:53:24.446Z,14.30
2018-03-24T14:55:52.753Z,14.60
2018-03-24T14:58:21.068Z,14.80
2018-03-24T15:00:49.368Z,14.80
2018-03-24T15:03:17.693Z,14.80
2018-03-24T15:05:45.997Z,14.90
2018-03-24T15:08:14.325Z,15.10
2018-03-24T15:10:42.621Z,15.00
2018-03-24T15:13:10.172Z,14.90
2018-03-24T15:15:38.480Z,14.50
2018-03-24T15:18:06.810Z,14.60
2018-03-24T15:20:35.116Z,14.80
2018-03-24T15:23:03.456Z,14.70
2018-03-24T15:25:31.780Z,14.60
2018-03-24T15:28:00.103Z,14.60
2018-03-24T15:30:39.537Z,14.60
2018-03-24T15:33:19.595Z,14.50
2018-03-24T15:35:59.725Z,14.40
2018-03-24T15:38:28.050Z,14.00
2018-03-24T15:40:56.360Z,13.80
2018-03-24T15:43:24.680Z,13.90
2018-03-24T15:45:52.979Z,14.00
2018-03-24T15:48:21.302Z,13.90
2018-03-24T15:50:49.617Z,13.90
2018-03-24T15:53:17.945Z,13.90
2018-03-24T15:55:46.245Z,13.90
2018-03-24T15:58:14.577Z,13.80
2018-03-24T16:00:42.912Z,13.60
2018-03-24T16:03:11.625Z,13.30
2018-03-24T16:05:39.928Z,13.20
2018-03-24T16:08:08.252Z,13.10
2018-03-24T16:10:36.561Z,13.00
2018-03-24T16:13:04.900Z,13.00
2018-03-24T16:15:33.194Z,13.10
2018-03-24T16:18:01.500Z,13.30
2018-03-24T16:20:29.821Z,13.40
2018-03-24T16:22:58.122Z,13.30
2018-03-24T16:25:26.449Z,13.20
2018-03-24T16:27:54.745Z,13.10
2018-03-24T16:30:23.077Z,13.00
2018-03-24T16:32:50.612Z,13.00
2018-03-24T16:35:18.954Z,12.80
2018-03-24T16:37:47.266Z,12.80
2018-03-24T16:40:15.584Z,12.70
2018-03-24T16:42:43.897Z,12.70
2018-03-24T16:45:12.233Z,12.70
2018-03-24T16:47:40.538Z,12.60
2018-03-24T16:50:09.035Z,12.40
2018-03-24T16:52:37.554Z,12.30
2018-03-24T16:55:05.884Z,12.20
2018-03-24T16:57:34.183Z,12.00
2018-03-24T17:00:02.520Z,11.90
2018-03-24T17:02:30.827Z,11.90
2018-03-24T17:04:59.160Z,11.90
2018-03-24T17:07:27.477Z,11.80
2018-03-24T17:09:55.801Z,11.70
2018-03-24T17:12:24.106Z,11.60
2018-03-24T17:14:52.429Z,11.50
2018-03-24T17:17:20.750Z,11.50
2018-03-24T17:19:49.140Z,11.70
2018-03-24T17:22:17.468Z,11.80
2018-03-24T17:24:45.808Z,11.80
2018-03-24T17:27:14.132Z,11.60
2018-03-24T17:29:42.455Z,11.30
2018-03-24T17:32:10.777Z,10.90
2018-03-24T17:34:39.128Z,10.60
2018-03-24T17:37:07.451Z,10.30
2018-03-24T17:39:35.773Z,10.00
2018-03-24T17:42:04.141Z,9.80
2018-03-24T17:44:32.460Z,9.50
2018-03-24T17:47:00.756Z,9.30
2018-03-24T17:49:29.135Z,9.10
2018-03-24T17:51:57.395Z,8.90
2018-03-24T17:54:25.719Z,8.80
2018-03-24T17:56:54.025Z,8.60
2018-03-24T17:59:22.350Z,8.40
2018-03-24T18:01:50.676Z,8.20
2018-03-24T18:04:19.040Z,8.10
2018-03-24T18:06:47.401Z,8.00
2018-03-24T18:09:15.716Z,7.80
2018-03-24T18:11:44.046Z,7.70
2018-03-24T18:14:12.364Z,7.60
2018-03-24T18:16:40.718Z,7.40
2018-03-24T18:19:09.037Z,7.20
2018-03-24T18:21:37.389Z,7.00
2018-03-24T18:24:05.705Z,6.80
2018-03-24T18:26:34.057Z,6.60
2018-03-24T18:29:02.409Z,6.50
2018-03-24T18:31:30.751Z,6.40
2018-03-24T18:33:59.055Z,6.30
2018-03-24T18:36:27.444Z,6.20
2018-03-24T18:38:55.776Z,6.10
2018-03-24T18:41:24.146Z,6.00
2018-03-24T18:43:52.695Z,5.90
2018-03-24T18:46:21.033Z,5.80
2018-03-24T18:48:49.324Z,5.70
2018-03-24T18:51:17.644Z,5.60
2018-03-24T18:53:45.949Z,5.50
2018-03-24T18:56:14.276Z,5.40
2018-03-24T18:58:42.609Z,5.30
2018-03-24T19:01:10.936Z,5.20
2018-03-24T19:03:39.241Z,5.10
2018-03-24T19:06:07.552Z,5.10
2018-03-24T19:08:35.849Z,5.00
2018-03-24T19:11:04.166Z,5.00
2018-03-24T19:13:31.708Z,5.00
2018-03-24T19:16:00.048Z,4.90
2018-03-24T19:18:28.412Z,4.80
2018-03-24T19:20:56.729Z,4.60
2018-03-24T19:23:24.261Z,4.60
2018-03-24T19:25:52.580Z,4.40
2018-03-24T19:28:20.872Z,4.30
2018-03-24T19:30:49.196Z,4.20
2018-03-24T19:33:17.531Z,4.20
2018-03-24T19:35:45.884Z,4.10
2018-03-24T19:38:14.183Z,4.00
2018-03-24T19:40:42.512Z,4.00
2018-03-24T19:43:10.811Z,3.90
2018-03-24T19:45:39.185Z,3.80
2018-03-24T19:48:07.514Z,3.70
2018-03-24T19:50:35.828Z,3.70
2018-03-24T19:53:04.147Z,3.60
2018-03-24T19:55:32.453Z,3.50
2018-03-24T19:58:00.768Z,3.40
2018-03-24T20:00:29.069Z,3.30
2018-03-24T20:02:57.470Z,3.20
2018-03-24T20:05:25.789Z,3.10
2018-03-24T20:07:54.117Z,3.00
2018-03-24T20:10:22.496Z,3.00
2018-03-24T20:12:50.833Z,2.90
2018-03-24T20:15:19.128Z,2.90
2018-03-24T20:17:47.455Z,2.80
2018-03-24T20:20:15.812Z,2.80
2018-03-24T20:22:44.131Z,2.80
2018-03-24T20:25:12.456Z,2.70
2018-03-24T20:27:40.796Z,2.70
2018-03-24T20:30:09.144Z,2.70
2018-03-24T20:32:36.696Z,2.60
2018-03-24T20:35:04.224Z,2.70
2018-03-24T20:37:32.555Z,2.60
2018-03-24T20:40:00.849Z,2.60
2018-03-24T20:42:29.183Z,2.60
2018-03-24T20:44:57.550Z,2.50
2018-03-24T20:47:25.873Z,2.40
2018-03-24T20:49:54.188Z,2.40
2018-03-24T20:52:22.500Z,2.30
2018-03-24T20:54:50.800Z,2.30
2018-03-24T20:57:19.116Z,2.20
2018-03-24T20:59:47.408Z,2.20
2018-03-24T21:02:15.723Z,2.10
2018-03-24T21:04:44.016Z,2.10
2018-03-24T21:07:12.334Z,2.00
2018-03-24T21:09:41.000Z,2.00
2018-03-24T21:12:09.304Z,1.90
2018-03-24T21:14:37.596Z,1.90
2018-03-24T21:17:05.905Z,1.80
2018-03-24T21:19:34.198Z,1.80
2018-03-24T21:22:02.521Z,1.80
2018-03-24T21:24:30.807Z,1.70
2018-03-24T21:26:59.173Z,1.70
2018-03-24T21:29:27.447Z,1.70
2018-03-24T21:31:55.744Z,1.70
2018-03-24T21:34:24.073Z,1.60
2018-03-24T21:36:52.364Z,1.60
2018-03-24T21:39:20.688Z,1.60
2018-03-24T21:41:48.981Z,1.60
2018-03-24T21:44:17.302Z,1.50
2018-03-24T21:46:45.609Z,1.50
2018-03-24T21:49:13.925Z,1.40
2018-03-24T21:51:42.228Z,1.40
2018-03-24T21:54:10.565Z,1.30
2018-03-24T21:56:38.852Z,1.30
2018-03-24T21:59:07.164Z,1.20
2018-03-24T22:01:35.456Z,1.20
2018-03-24T22:04:03.793Z,1.20
2018-03-24T22:06:32.080Z,1.20
2018-03-24T22:09:00.397Z,1.20
2018-03-24T22:11:28.700Z,1.10
2018-03-24T22:13:57.017Z,1.10
2018-03-24T22:16:25.320Z,1.10
2018-03-24T22:18:53.636Z,1.10
2018-03-24T22:21:21.929Z,1.00
2018-03-24T22:23:50.244Z,1.00
2018-03-24T22:26:18.535Z,1.00
2018-03-24T22:28:46.853Z,0.90
2018-03-24T22:31:15.154Z,0.90
2018-03-24T22:33:43.478Z,0.90
2018-03-24T22:36:11.775Z,0.90
2018-03-24T22:38:40.095Z,0.80
2018-03-24T22:41:08.393Z,0.80
2018-03-24T22:43:35.963Z,0.80
2018-03-24T22:46:04.256Z,0.80
2018-03-24T22:48:32.576Z,0.80
2018-03-24T22:51:00.873Z,0.80
2018-03-24T22:53:29.185Z,0.90
2018-03-24T22:55:57.479Z,0.90
2018-03-24T22:58:25.792Z,0.80
2018-03-24T23:00:54.081Z,0.90
2018-03-24T23:03:22.396Z,0.80
2018-03-24T23:05:50.694Z,0.80
2018-03-24T23:08:19.029Z,0.80
2018-03-24T23:10:47.324Z,0.70
2018-03-24T23:13:15.625Z,0.70
2018-03-24T23:15:43.957Z,0.70
2018-03-24T23:18:12.632Z,0.70
2018-03-24T23:20:41.888Z,0.60
2018-03-24T23:23:10.188Z,0.60
2018-03-24T23:25:38.698Z,0.60
2018-03-24T23:28:06.996Z,0.50
2018-03-24T23:30:35.299Z,0.50
2018-03-24T23:33:03.632Z,0.50
2018-03-24T23:35:31.943Z,0.40
2018-03-24T23:38:00.240Z,0.50
2018-03-24T23:40:28.552Z,0.40
2018-03-24T23:42:56.853Z,0.50
2018-03-24T23:45:25.168Z,0.40
2018-03-24T23:47:53.461Z,0.40
2018-03-24T23:50:21.771Z,0.40
2018-03-24T23:52:50.060Z,0.40
2018-03-24T23:55:18.372Z,0.40
2018-03-24T23:57:46.659Z,0.40
